Pagina principale
METAR-TAF:

METAR-TAF

Aeroporti :

Kecskemét, Ungheria

latitudine: 46-55N, longitudine: 019-45E, altezza: 113 m

Osservazione

Il bollettino è stato emesso 22 minuti fa, alle 11:45 UTC
Vento 8 kt da ovest/sud-ovest, variando fra sud e ovest
Temperature 9°C
Umidità 61%
Pressione 1012 hPa
Visibilità 10 km o più
Nubi sparse ad un'altezza di 3000 ft
Nubi sparse ad un'altezza di 20000 ft

METAR: LHKE 191145Z 25008KT 180V280 9999 SCT030 SCT200 09/02 Q1012 NOSIG RMK BLU

Ora: 13:07 (12:07 UTC)

Previsione

Il bollettino è stato emesso 52 minuti fa, alle 11:15 UTC
Previsione valida dal 19 alle 12 UTC al 19 alle 21 UTC
Vento 6 kt da ovest/sud-ovest
Visibilità 10 km o più
nessuna nube inferiore a 1500 m e nessun cumulonembo
Temporaneamente
dal 19 alle 12 UTC al 19 alle 18 UTC
Nuvoloso ad un'altezza di 3300 ft
Nuvoloso ad un'altezza di 8300 ft
pioggia debole

TAF: LHKE 191115Z 1912/1921 25006KT CAVOK TEMPO 1912/1918 -RA BKN033 BKN083

Osservazioni e previsioni meteorologiche di più di 4000 aeroporti (messaggi METAR e TAF).

Le stazioni disponibili sono rappresentate dai dischi gialli e rossi sulla carta.

Puntare il mouse per vedere il nome della stazione.

Clicca sopra per visualizzare le osservazioni e previsioni meteorologiche.

Per cambiare la mappa : fare clic sui pulsanti verdi con una croce nera per ingrandire, il pulsante verde con un trattino per diminuire, o sulla freccia verde per le mappe adiacenti.


METAR-TAF: